sensor_id;sensor_type;location;lat;lon;timestamp;P1;durP1;ratioP1;P2;durP2;ratioP2
13805;SDS011;6974;53.606;9.872;2023-04-07T00:01:57;11.40;;;10.10;;
13805;SDS011;6974;53.606;9.872;2023-04-07T00:04:24;11.90;;;10.63;;
13805;SDS011;6974;53.606;9.872;2023-04-07T00:06:51;11.80;;;10.30;;
13805;SDS011;6974;53.606;9.872;2023-04-07T00:09:19;12.13;;;10.57;;
13805;SDS011;6974;53.606;9.872;2023-04-07T00:11:46;13.07;;;10.00;;
13805;SDS011;6974;53.606;9.872;2023-04-07T00:14:14;11.27;;;10.03;;
13805;SDS011;6974;53.606;9.872;2023-04-07T00:16:41;11.43;;;9.73;;
13805;SDS011;6974;53.606;9.872;2023-04-07T00:19:08;11.60;;;9.73;;
13805;SDS011;6974;53.606;9.872;2023-04-07T00:21:35;10.87;;;9.53;;
13805;SDS011;6974;53.606;9.872;2023-04-07T00:24:02;11.53;;;10.33;;
13805;SDS011;6974;53.606;9.872;2023-04-07T00:26:32;13.27;;;10.00;;
13805;SDS011;6974;53.606;9.872;2023-04-07T00:28:59;10.23;;;9.03;;
13805;SDS011;6974;53.606;9.872;2023-04-07T00:31:26;12.20;;;10.20;;
13805;SDS011;6974;53.606;9.872;2023-04-07T00:33:53;11.70;;;10.07;;
13805;SDS011;6974;53.606;9.872;2023-04-07T00:36:21;10.90;;;9.73;;
13805;SDS011;6974;53.606;9.872;2023-04-07T00:38:48;10.33;;;9.23;;
13805;SDS011;6974;53.606;9.872;2023-04-07T00:41:15;11.27;;;10.07;;
13805;SDS011;6974;53.606;9.872;2023-04-07T00:43:44;11.43;;;9.37;;
13805;SDS011;6974;53.606;9.872;2023-04-07T00:46:11;12.30;;;10.27;;
13805;SDS011;6974;53.606;9.872;2023-04-07T00:48:38;10.83;;;9.73;;
13805;SDS011;6974;53.606;9.872;2023-04-07T00:51:05;11.07;;;9.43;;
13805;SDS011;6974;53.606;9.872;2023-04-07T00:53:33;11.93;;;9.53;;
13805;SDS011;6974;53.606;9.872;2023-04-07T00:56:00;12.77;;;9.90;;
13805;SDS011;6974;53.606;9.872;2023-04-07T00:58:27;12.50;;;9.30;;
13805;SDS011;6974;53.606;9.872;2023-04-07T01:00:57;12.27;;;10.20;;
13805;SDS011;6974;53.606;9.872;2023-04-07T01:03:34;12.13;;;9.40;;
13805;SDS011;6974;53.606;9.872;2023-04-07T01:06:08;15.10;;;9.33;;
13805;SDS011;6974;53.606;9.872;2023-04-07T01:08:41;11.30;;;10.10;;
13805;SDS011;6974;53.606;9.872;2023-04-07T01:11:16;10.60;;;9.60;;
13805;SDS011;6974;53.606;9.872;2023-04-07T01:13:50;10.67;;;9.57;;
13805;SDS011;6974;53.606;9.872;2023-04-07T01:16:21;10.80;;;9.70;;
13805;SDS011;6974;53.606;9.872;2023-04-07T01:18:53;11.77;;;9.70;;
13805;SDS011;6974;53.606;9.872;2023-04-07T01:21:24;9.83;;;8.87;;
13805;SDS011;6974;53.606;9.872;2023-04-07T01:26:54;10.57;;;9.17;;
13805;SDS011;6974;53.606;9.872;2023-04-07T01:29:34;10.77;;;8.97;;
13805;SDS011;6974;53.606;9.872;2023-04-07T01:32:05;11.37;;;9.00;;
13805;SDS011;6974;53.606;9.872;2023-04-07T01:34:38;9.70;;;8.73;;
13805;SDS011;6974;53.606;9.872;2023-04-07T01:37:07;12.13;;;9.47;;
13805;SDS011;6974;53.606;9.872;2023-04-07T01:39:35;11.80;;;10.00;;
13805;SDS011;6974;53.606;9.872;2023-04-07T01:42:04;11.70;;;9.80;;
13805;SDS011;6974;53.606;9.872;2023-04-07T01:44:34;11.40;;;9.83;;
13805;SDS011;6974;53.606;9.872;2023-04-07T01:47:02;10.10;;;9.03;;
13805;SDS011;6974;53.606;9.872;2023-04-07T01:49:30;14.33;;;9.27;;
13805;SDS011;6974;53.606;9.872;2023-04-07T01:51:59;12.77;;;9.30;;
13805;SDS011;6974;53.606;9.872;2023-04-07T01:54:27;10.40;;;8.77;;
13805;SDS011;6974;53.606;9.872;2023-04-07T01:56:55;9.33;;;8.43;;
13805;SDS011;6974;53.606;9.872;2023-04-07T01:59:22;11.77;;;9.47;;
13805;SDS011;6974;53.606;9.872;2023-04-07T02:01:51;9.43;;;8.53;;
13805;SDS011;6974;53.606;9.872;2023-04-07T02:04:19;12.97;;;9.73;;
13805;SDS011;6974;53.606;9.872;2023-04-07T02:06:58;9.47;;;8.50;;
13805;SDS011;6974;53.606;9.872;2023-04-07T02:09:29;9.80;;;8.80;;
13805;SDS011;6974;53.606;9.872;2023-04-07T02:11:59;10.87;;;8.93;;
13805;SDS011;6974;53.606;9.872;2023-04-07T02:14:27;11.47;;;9.37;;
13805;SDS011;6974;53.606;9.872;2023-04-07T02:16:57;8.87;;;8.07;;
13805;SDS011;6974;53.606;9.872;2023-04-07T02:19:26;9.17;;;8.23;;
13805;SDS011;6974;53.606;9.872;2023-04-07T02:21:55;10.17;;;7.90;;
13805;SDS011;6974;53.606;9.872;2023-04-07T02:24:25;10.53;;;8.90;;
13805;SDS011;6974;53.606;9.872;2023-04-07T02:26:52;9.10;;;8.27;;
13805;SDS011;6974;53.606;9.872;2023-04-07T02:29:20;9.33;;;8.20;;
13805;SDS011;6974;53.606;9.872;2023-04-07T02:31:47;8.83;;;7.93;;
13805;SDS011;6974;53.606;9.872;2023-04-07T02:34:17;9.03;;;8.07;;
13805;SDS011;6974;53.606;9.872;2023-04-07T02:36:44;11.53;;;8.33;;
13805;SDS011;6974;53.606;9.872;2023-04-07T02:39:11;10.37;;;8.13;;
13805;SDS011;6974;53.606;9.872;2023-04-07T02:41:38;8.73;;;7.83;;
13805;SDS011;6974;53.606;9.872;2023-04-07T02:44:06;8.57;;;7.70;;
13805;SDS011;6974;53.606;9.872;2023-04-07T02:46:34;8.83;;;7.93;;
13805;SDS011;6974;53.606;9.872;2023-04-07T02:49:01;10.23;;;7.47;;
13805;SDS011;6974;53.606;9.872;2023-04-07T02:51:29;8.90;;;7.70;;
13805;SDS011;6974;53.606;9.872;2023-04-07T02:53:57;8.53;;;7.63;;
13805;SDS011;6974;53.606;9.872;2023-04-07T02:56:24;7.70;;;6.97;;
13805;SDS011;6974;53.606;9.872;2023-04-07T02:58:50;8.33;;;7.53;;
13805;SDS011;6974;53.606;9.872;2023-04-07T03:01:17;7.97;;;7.17;;
13805;SDS011;6974;53.606;9.872;2023-04-07T03:03:44;9.00;;;7.67;;
13805;SDS011;6974;53.606;9.872;2023-04-07T03:06:11;9.10;;;7.20;;
13805;SDS011;6974;53.606;9.872;2023-04-07T03:08:39;8.33;;;7.47;;
13805;SDS011;6974;53.606;9.872;2023-04-07T03:11:06;10.60;;;7.23;;
13805;SDS011;6974;53.606;9.872;2023-04-07T03:13:33;8.20;;;6.93;;
13805;SDS011;6974;53.606;9.872;2023-04-07T03:16:00;8.47;;;7.20;;
13805;SDS011;6974;53.606;9.872;2023-04-07T03:18:27;8.77;;;6.57;;
13805;SDS011;6974;53.606;9.872;2023-04-07T03:20:54;7.53;;;6.60;;
13805;SDS011;6974;53.606;9.872;2023-04-07T03:23:21;7.33;;;6.50;;
13805;SDS011;6974;53.606;9.872;2023-04-07T03:25:50;8.63;;;7.13;;
13805;SDS011;6974;53.606;9.872;2023-04-07T03:28:16;7.77;;;6.53;;
13805;SDS011;6974;53.606;9.872;2023-04-07T03:30:43;8.37;;;7.30;;
13805;SDS011;6974;53.606;9.872;2023-04-07T03:33:10;7.40;;;6.70;;
13805;SDS011;6974;53.606;9.872;2023-04-07T03:35:37;7.53;;;6.77;;
13805;SDS011;6974;53.606;9.872;2023-04-07T03:38:03;7.47;;;6.57;;
13805;SDS011;6974;53.606;9.872;2023-04-07T03:40:30;7.80;;;6.83;;
13805;SDS011;6974;53.606;9.872;2023-04-07T03:43:01;7.50;;;6.57;;
13805;SDS011;6974;53.606;9.872;2023-04-07T03:45:27;7.47;;;6.77;;
13805;SDS011;6974;53.606;9.872;2023-04-07T03:47:54;7.20;;;6.50;;
13805;SDS011;6974;53.606;9.872;2023-04-07T03:50:21;7.13;;;6.43;;
13805;SDS011;6974;53.606;9.872;2023-04-07T03:52:48;11.03;;;7.00;;
13805;SDS011;6974;53.606;9.872;2023-04-07T03:55:15;8.67;;;6.53;;
13805;SDS011;6974;53.606;9.872;2023-04-07T03:57:42;7.67;;;6.40;;
13805;SDS011;6974;53.606;9.872;2023-04-07T04:00:11;7.33;;;6.33;;
13805;SDS011;6974;53.606;9.872;2023-04-07T04:02:38;8.07;;;6.93;;
13805;SDS011;6974;53.606;9.872;2023-04-07T04:05:05;8.00;;;7.13;;
13805;SDS011;6974;53.606;9.872;2023-04-07T04:07:32;7.60;;;6.83;;
13805;SDS011;6974;53.606;9.872;2023-04-07T04:10:00;8.33;;;7.10;;
13805;SDS011;6974;53.606;9.872;2023-04-07T04:12:26;7.80;;;6.80;;
13805;SDS011;6974;53.606;9.872;2023-04-07T04:14:53;7.67;;;6.70;;
13805;SDS011;6974;53.606;9.872;2023-04-07T04:17:21;8.77;;;7.47;;
13805;SDS011;6974;53.606;9.872;2023-04-07T04:19:49;10.83;;;6.77;;
13805;SDS011;6974;53.606;9.872;2023-04-07T04:22:16;8.30;;;6.60;;
13805;SDS011;6974;53.606;9.872;2023-04-07T04:24:43;8.33;;;7.00;;
13805;SDS011;6974;53.606;9.872;2023-04-07T04:27:10;7.60;;;6.40;;
13805;SDS011;6974;53.606;9.872;2023-04-07T04:29:37;7.80;;;7.00;;
13805;SDS011;6974;53.606;9.872;2023-04-07T04:32:03;8.53;;;6.90;;
13805;SDS011;6974;53.606;9.872;2023-04-07T04:34:32;7.57;;;6.30;;
13805;SDS011;6974;53.606;9.872;2023-04-07T04:36:59;7.00;;;5.97;;
13805;SDS011;6974;53.606;9.872;2023-04-07T04:39:26;7.80;;;6.27;;
13805;SDS011;6974;53.606;9.872;2023-04-07T04:41:52;10.37;;;6.97;;
13805;SDS011;6974;53.606;9.872;2023-04-07T04:44:20;7.50;;;6.07;;
13805;SDS011;6974;53.606;9.872;2023-04-07T04:46:47;7.00;;;6.30;;
13805;SDS011;6974;53.606;9.872;2023-04-07T04:49:14;7.07;;;6.07;;
13805;SDS011;6974;53.606;9.872;2023-04-07T04:51:44;9.23;;;6.77;;
13805;SDS011;6974;53.606;9.872;2023-04-07T04:54:11;7.70;;;6.60;;
13805;SDS011;6974;53.606;9.872;2023-04-07T04:56:37;7.83;;;7.00;;
13805;SDS011;6974;53.606;9.872;2023-04-07T04:59:04;8.40;;;6.53;;
13805;SDS011;6974;53.606;9.872;2023-04-07T05:01:31;7.37;;;6.47;;
13805;SDS011;6974;53.606;9.872;2023-04-07T05:03:58;8.30;;;6.40;;
13805;SDS011;6974;53.606;9.872;2023-04-07T05:06:25;7.20;;;6.27;;
13805;SDS011;6974;53.606;9.872;2023-04-07T05:08:53;6.97;;;6.23;;
13805;SDS011;6974;53.606;9.872;2023-04-07T05:11:20;7.23;;;6.30;;
13805;SDS011;6974;53.606;9.872;2023-04-07T05:13:47;9.47;;;6.83;;
13805;SDS011;6974;53.606;9.872;2023-04-07T05:16:14;7.63;;;6.80;;
13805;SDS011;6974;53.606;9.872;2023-04-07T05:18:41;6.97;;;6.27;;
13805;SDS011;6974;53.606;9.872;2023-04-07T05:21:08;6.87;;;6.17;;
13805;SDS011;6974;53.606;9.872;2023-04-07T05:23:35;7.90;;;6.37;;
13805;SDS011;6974;53.606;9.872;2023-04-07T05:26:03;8.30;;;6.40;;
13805;SDS011;6974;53.606;9.872;2023-04-07T05:28:30;6.77;;;6.17;;
13805;SDS011;6974;53.606;9.872;2023-04-07T05:30:57;8.03;;;6.30;;
13805;SDS011;6974;53.606;9.872;2023-04-07T05:33:25;8.60;;;6.37;;
13805;SDS011;6974;53.606;9.872;2023-04-07T05:35:52;10.37;;;6.70;;
13805;SDS011;6974;53.606;9.872;2023-04-07T05:38:19;6.57;;;5.80;;
13805;SDS011;6974;53.606;9.872;2023-04-07T05:40:45;6.93;;;6.33;;
13805;SDS011;6974;53.606;9.872;2023-04-07T05:43:14;6.60;;;5.83;;
13805;SDS011;6974;53.606;9.872;2023-04-07T05:45:40;7.77;;;6.43;;
13805;SDS011;6974;53.606;9.872;2023-04-07T05:48:07;7.70;;;6.13;;
13805;SDS011;6974;53.606;9.872;2023-04-07T05:50:34;7.53;;;6.03;;
13805;SDS011;6974;53.606;9.872;2023-04-07T05:53:01;7.67;;;6.27;;
13805;SDS011;6974;53.606;9.872;2023-04-07T05:55:28;6.77;;;6.07;;
13805;SDS011;6974;53.606;9.872;2023-04-07T05:57:55;7.90;;;6.17;;
13805;SDS011;6974;53.606;9.872;2023-04-07T06:00:23;8.90;;;6.67;;
13805;SDS011;6974;53.606;9.872;2023-04-07T06:02:51;7.60;;;6.80;;
13805;SDS011;6974;53.606;9.872;2023-04-07T06:05:18;8.87;;;6.20;;
13805;SDS011;6974;53.606;9.872;2023-04-07T06:07:45;8.03;;;6.40;;
13805;SDS011;6974;53.606;9.872;2023-04-07T06:10:12;7.17;;;6.47;;
13805;SDS011;6974;53.606;9.872;2023-04-07T06:12:39;7.00;;;6.30;;
13805;SDS011;6974;53.606;9.872;2023-04-07T06:15:06;7.93;;;6.20;;
13805;SDS011;6974;53.606;9.872;2023-04-07T06:17:35;6.93;;;5.70;;
13805;SDS011;6974;53.606;9.872;2023-04-07T06:20:02;7.37;;;6.27;;
13805;SDS011;6974;53.606;9.872;2023-04-07T06:22:29;6.70;;;6.00;;
13805;SDS011;6974;53.606;9.872;2023-04-07T06:24:56;7.90;;;6.00;;
13805;SDS011;6974;53.606;9.872;2023-04-07T06:27:23;8.43;;;5.93;;
13805;SDS011;6974;53.606;9.872;2023-04-07T06:29:49;6.23;;;5.57;;
13805;SDS011;6974;53.606;9.872;2023-04-07T06:32:16;6.90;;;6.00;;
13805;SDS011;6974;53.606;9.872;2023-04-07T06:34:45;6.90;;;6.20;;
13805;SDS011;6974;53.606;9.872;2023-04-07T06:37:12;7.53;;;6.37;;
13805;SDS011;6974;53.606;9.872;2023-04-07T06:39:40;8.00;;;5.80;;
13805;SDS011;6974;53.606;9.872;2023-04-07T06:42:07;8.47;;;6.37;;
13805;SDS011;6974;53.606;9.872;2023-04-07T06:44:34;6.20;;;5.60;;
13805;SDS011;6974;53.606;9.872;2023-04-07T06:47:01;6.87;;;6.17;;
13805;SDS011;6974;53.606;9.872;2023-04-07T06:49:28;6.87;;;6.10;;
13805;SDS011;6974;53.606;9.872;2023-04-07T06:51:56;7.63;;;6.40;;
13805;SDS011;6974;53.606;9.872;2023-04-07T06:54:23;8.27;;;6.80;;
13805;SDS011;6974;53.606;9.872;2023-04-07T06:56:50;7.43;;;6.37;;
13805;SDS011;6974;53.606;9.872;2023-04-07T06:59:17;7.47;;;6.53;;
13805;SDS011;6974;53.606;9.872;2023-04-07T07:01:44;8.07;;;6.50;;
13805;SDS011;6974;53.606;9.872;2023-04-07T07:04:10;8.00;;;6.77;;
13805;SDS011;6974;53.606;9.872;2023-04-07T07:06:37;9.13;;;6.70;;
13805;SDS011;6974;53.606;9.872;2023-04-07T07:09:05;8.57;;;6.33;;
13805;SDS011;6974;53.606;9.872;2023-04-07T07:11:32;10.90;;;7.27;;
13805;SDS011;6974;53.606;9.872;2023-04-07T07:13:59;7.80;;;6.43;;
13805;SDS011;6974;53.606;9.872;2023-04-07T07:16:26;7.73;;;6.93;;
13805;SDS011;6974;53.606;9.872;2023-04-07T07:18:53;10.47;;;7.23;;
13805;SDS011;6974;53.606;9.872;2023-04-07T07:21:20;8.13;;;6.87;;
13805;SDS011;6974;53.606;9.872;2023-04-07T07:23:47;7.17;;;6.47;;
13805;SDS011;6974;53.606;9.872;2023-04-07T07:26:15;8.13;;;6.87;;
13805;SDS011;6974;53.606;9.872;2023-04-07T07:28:42;8.63;;;6.30;;
13805;SDS011;6974;53.606;9.872;2023-04-07T07:31:09;8.50;;;6.47;;
13805;SDS011;6974;53.606;9.872;2023-04-07T07:33:38;6.37;;;5.77;;
13805;SDS011;6974;53.606;9.872;2023-04-07T07:36:05;8.70;;;6.03;;
13805;SDS011;6974;53.606;9.872;2023-04-07T07:38:32;6.90;;;6.17;;
13805;SDS011;6974;53.606;9.872;2023-04-07T07:41:00;9.13;;;6.40;;
13805;SDS011;6974;53.606;9.872;2023-04-07T07:43:28;7.67;;;6.37;;
13805;SDS011;6974;53.606;9.872;2023-04-07T07:45:55;7.83;;;5.87;;
13805;SDS011;6974;53.606;9.872;2023-04-07T07:48:22;7.27;;;6.30;;
13805;SDS011;6974;53.606;9.872;2023-04-07T07:50:49;7.47;;;6.40;;
13805;SDS011;6974;53.606;9.872;2023-04-07T07:53:16;8.27;;;6.17;;
13805;SDS011;6974;53.606;9.872;2023-04-07T07:55:44;8.57;;;5.77;;
13805;SDS011;6974;53.606;9.872;2023-04-07T07:58:11;7.37;;;6.17;;
13805;SDS011;6974;53.606;9.872;2023-04-07T08:00:39;7.80;;;5.87;;
13805;SDS011;6974;53.606;9.872;2023-04-07T08:03:06;6.93;;;5.90;;
13805;SDS011;6974;53.606;9.872;2023-04-07T08:05:33;7.50;;;5.70;;
13805;SDS011;6974;53.606;9.872;2023-04-07T08:08:00;7.20;;;5.70;;
13805;SDS011;6974;53.606;9.872;2023-04-07T08:10:27;8.23;;;5.90;;
13805;SDS011;6974;53.606;9.872;2023-04-07T08:12:54;6.70;;;5.80;;
13805;SDS011;6974;53.606;9.872;2023-04-07T08:15:21;7.70;;;6.07;;
13805;SDS011;6974;53.606;9.872;2023-04-07T08:17:49;7.00;;;6.10;;
13805;SDS011;6974;53.606;9.872;2023-04-07T08:20:16;7.97;;;5.90;;
13805;SDS011;6974;53.606;9.872;2023-04-07T08:22:43;6.27;;;5.50;;
13805;SDS011;6974;53.606;9.872;2023-04-07T08:25:09;7.90;;;5.67;;
13805;SDS011;6974;53.606;9.872;2023-04-07T08:27:36;6.87;;;5.70;;
13805;SDS011;6974;53.606;9.872;2023-04-07T08:30:04;6.17;;;5.57;;
13805;SDS011;6974;53.606;9.872;2023-04-07T08:32:35;8.63;;;6.20;;
13805;SDS011;6974;53.606;9.872;2023-04-07T08:35:04;5.83;;;5.03;;
13805;SDS011;6974;53.606;9.872;2023-04-07T08:37:31;7.30;;;5.43;;
13805;SDS011;6974;53.606;9.872;2023-04-07T08:39:58;6.07;;;5.33;;
13805;SDS011;6974;53.606;9.872;2023-04-07T08:42:26;7.77;;;5.83;;
13805;SDS011;6974;53.606;9.872;2023-04-07T08:44:55;6.67;;;5.73;;
13805;SDS011;6974;53.606;9.872;2023-04-07T08:47:24;7.33;;;5.13;;
13805;SDS011;6974;53.606;9.872;2023-04-07T08:49:52;6.63;;;5.50;;
13805;SDS011;6974;53.606;9.872;2023-04-07T08:52:22;6.50;;;5.60;;
13805;SDS011;6974;53.606;9.872;2023-04-07T08:54:54;6.13;;;5.50;;
13805;SDS011;6974;53.606;9.872;2023-04-07T08:57:23;6.33;;;5.63;;
13805;SDS011;6974;53.606;9.872;2023-04-07T08:59:50;7.77;;;5.50;;
13805;SDS011;6974;53.606;9.872;2023-04-07T09:02:18;6.13;;;5.40;;
13805;SDS011;6974;53.606;9.872;2023-04-07T09:04:46;6.70;;;5.33;;
13805;SDS011;6974;53.606;9.872;2023-04-07T09:07:13;6.40;;;5.53;;
13805;SDS011;6974;53.606;9.872;2023-04-07T09:09:42;6.17;;;5.30;;
13805;SDS011;6974;53.606;9.872;2023-04-07T09:12:10;6.20;;;5.13;;
13805;SDS011;6974;53.606;9.872;2023-04-07T09:14:37;7.93;;;5.77;;
13805;SDS011;6974;53.606;9.872;2023-04-07T09:17:05;7.60;;;5.60;;
13805;SDS011;6974;53.606;9.872;2023-04-07T09:19:32;9.70;;;6.00;;
13805;SDS011;6974;53.606;9.872;2023-04-07T09:21:59;7.07;;;5.67;;
13805;SDS011;6974;53.606;9.872;2023-04-07T09:24:27;9.03;;;5.70;;
13805;SDS011;6974;53.606;9.872;2023-04-07T09:27:09;7.37;;;5.70;;
13805;SDS011;6974;53.606;9.872;2023-04-07T09:29:37;6.87;;;5.80;;
13805;SDS011;6974;53.606;9.872;2023-04-07T09:32:06;7.70;;;5.50;;
13805;SDS011;6974;53.606;9.872;2023-04-07T09:34:35;6.33;;;5.50;;
13805;SDS011;6974;53.606;9.872;2023-04-07T09:37:04;6.80;;;5.37;;
13805;SDS011;6974;53.606;9.872;2023-04-07T09:39:33;6.80;;;5.40;;
13805;SDS011;6974;53.606;9.872;2023-04-07T09:42:18;7.17;;;5.80;;
13805;SDS011;6974;53.606;9.872;2023-04-07T09:44:46;8.53;;;5.73;;
13805;SDS011;6974;53.606;9.872;2023-04-07T09:47:14;8.20;;;5.77;;
13805;SDS011;6974;53.606;9.872;2023-04-07T09:49:48;6.90;;;6.20;;
13805;SDS011;6974;53.606;9.872;2023-04-07T09:52:18;7.73;;;5.67;;
13805;SDS011;6974;53.606;9.872;2023-04-07T09:54:45;6.50;;;5.70;;
13805;SDS011;6974;53.606;9.872;2023-04-07T09:57:14;7.13;;;5.70;;
13805;SDS011;6974;53.606;9.872;2023-04-07T09:59:43;6.77;;;5.50;;
13805;SDS011;6974;53.606;9.872;2023-04-07T10:02:12;8.07;;;6.73;;
13805;SDS011;6974;53.606;9.872;2023-04-07T10:04:42;8.03;;;6.27;;
13805;SDS011;6974;53.606;9.872;2023-04-07T10:07:10;9.53;;;6.30;;
13805;SDS011;6974;53.606;9.872;2023-04-07T10:09:37;7.33;;;6.27;;
13805;SDS011;6974;53.606;9.872;2023-04-07T10:12:04;10.73;;;6.20;;
13805;SDS011;6974;53.606;9.872;2023-04-07T10:14:32;6.93;;;6.23;;
13805;SDS011;6974;53.606;9.872;2023-04-07T10:17:02;6.67;;;6.07;;
13805;SDS011;6974;53.606;9.872;2023-04-07T10:19:30;5.70;;;5.20;;
13805;SDS011;6974;53.606;9.872;2023-04-07T10:21:58;5.80;;;5.20;;
13805;SDS011;6974;53.606;9.872;2023-04-07T10:24:35;5.20;;;4.80;;
13805;SDS011;6974;53.606;9.872;2023-04-07T10:27:12;5.83;;;5.13;;
13805;SDS011;6974;53.606;9.872;2023-04-07T10:29:43;7.50;;;4.80;;
13805;SDS011;6974;53.606;9.872;2023-04-07T10:32:15;5.17;;;4.50;;
13805;SDS011;6974;53.606;9.872;2023-04-07T10:34:55;5.37;;;4.87;;
13805;SDS011;6974;53.606;9.872;2023-04-07T10:37:25;5.33;;;4.77;;
13805;SDS011;6974;53.606;9.872;2023-04-07T10:42:56;7.47;;;5.27;;
13805;SDS011;6974;53.606;9.872;2023-04-07T10:48:26;8.17;;;4.83;;
13805;SDS011;6974;53.606;9.872;2023-04-07T10:51:13;5.63;;;5.00;;
13805;SDS011;6974;53.606;9.872;2023-04-07T10:57:06;7.30;;;6.03;;
13805;SDS011;6974;53.606;9.872;2023-04-07T11:02:43;7.40;;;5.27;;
13805;SDS011;6974;53.606;9.872;2023-04-07T11:05:21;5.40;;;4.90;;
13805;SDS011;6974;53.606;9.872;2023-04-07T11:07:49;6.20;;;4.83;;
13805;SDS011;6974;53.606;9.872;2023-04-07T11:10:21;7.60;;;5.43;;
13805;SDS011;6974;53.606;9.872;2023-04-07T11:12:58;6.50;;;5.87;;
13805;SDS011;6974;53.606;9.872;2023-04-07T11:15:27;7.50;;;5.40;;
13805;SDS011;6974;53.606;9.872;2023-04-07T11:18:05;6.97;;;5.33;;
13805;SDS011;6974;53.606;9.872;2023-04-07T11:20:43;6.23;;;4.97;;
13805;SDS011;6974;53.606;9.872;2023-04-07T11:23:12;6.00;;;5.17;;
13805;SDS011;6974;53.606;9.872;2023-04-07T11:25:40;6.60;;;5.60;;
13805;SDS011;6974;53.606;9.872;2023-04-07T11:28:09;5.80;;;4.97;;
13805;SDS011;6974;53.606;9.872;2023-04-07T11:30:38;5.67;;;4.80;;
13805;SDS011;6974;53.606;9.872;2023-04-07T11:33:13;6.00;;;5.40;;
13805;SDS011;6974;53.606;9.872;2023-04-07T11:35:47;5.93;;;5.23;;
13805;SDS011;6974;53.606;9.872;2023-04-07T11:38:19;5.70;;;5.10;;
13805;SDS011;6974;53.606;9.872;2023-04-07T11:40:47;6.20;;;5.60;;
13805;SDS011;6974;53.606;9.872;2023-04-07T11:43:15;5.93;;;5.30;;
13805;SDS011;6974;53.606;9.872;2023-04-07T11:45:43;6.90;;;5.37;;
13805;SDS011;6974;53.606;9.872;2023-04-07T11:48:26;9.17;;;7.80;;
13805;SDS011;6974;53.606;9.872;2023-04-07T11:50:56;10.47;;;7.70;;
13805;SDS011;6974;53.606;9.872;2023-04-07T11:53:24;6.23;;;5.33;;
13805;SDS011;6974;53.606;9.872;2023-04-07T11:56:00;7.47;;;5.83;;
13805;SDS011;6974;53.606;9.872;2023-04-07T11:58:29;6.70;;;4.97;;
13805;SDS011;6974;53.606;9.872;2023-04-07T12:00:56;6.13;;;5.53;;
13805;SDS011;6974;53.606;9.872;2023-04-07T12:03:27;5.67;;;5.17;;
13805;SDS011;6974;53.606;9.872;2023-04-07T12:05:56;5.53;;;4.47;;
13805;SDS011;6974;53.606;9.872;2023-04-07T12:08:35;5.20;;;4.70;;
13805;SDS011;6974;53.606;9.872;2023-04-07T12:11:07;5.63;;;4.47;;
13805;SDS011;6974;53.606;9.872;2023-04-07T12:13:35;5.30;;;4.10;;
13805;SDS011;6974;53.606;9.872;2023-04-07T12:16:02;5.93;;;4.37;;
13805;SDS011;6974;53.606;9.872;2023-04-07T12:18:30;5.00;;;4.23;;
13805;SDS011;6974;53.606;9.872;2023-04-07T12:20:59;4.87;;;4.37;;
13805;SDS011;6974;53.606;9.872;2023-04-07T12:23:26;4.57;;;4.17;;
13805;SDS011;6974;53.606;9.872;2023-04-07T12:25:54;6.90;;;5.27;;
13805;SDS011;6974;53.606;9.872;2023-04-07T12:28:21;4.97;;;4.47;;
13805;SDS011;6974;53.606;9.872;2023-04-07T12:30:48;4.50;;;4.00;;
13805;SDS011;6974;53.606;9.872;2023-04-07T12:33:15;4.53;;;4.13;;
13805;SDS011;6974;53.606;9.872;2023-04-07T12:35:42;4.87;;;4.37;;
13805;SDS011;6974;53.606;9.872;2023-04-07T12:38:11;5.63;;;4.63;;
13805;SDS011;6974;53.606;9.872;2023-04-07T12:40:38;5.00;;;4.50;;
13805;SDS011;6974;53.606;9.872;2023-04-07T12:43:05;5.23;;;4.40;;
13805;SDS011;6974;53.606;9.872;2023-04-07T12:45:32;4.80;;;4.17;;
13805;SDS011;6974;53.606;9.872;2023-04-07T12:47:59;6.93;;;4.50;;
13805;SDS011;6974;53.606;9.872;2023-04-07T12:50:26;5.83;;;5.00;;
13805;SDS011;6974;53.606;9.872;2023-04-07T12:52:55;5.23;;;4.17;;
13805;SDS011;6974;53.606;9.872;2023-04-07T12:55:25;4.60;;;4.10;;
13805;SDS011;6974;53.606;9.872;2023-04-07T12:57:52;4.93;;;3.67;;
13805;SDS011;6974;53.606;9.872;2023-04-07T13:00:20;4.40;;;3.53;;
13805;SDS011;6974;53.606;9.872;2023-04-07T13:02:48;5.03;;;3.63;;
13805;SDS011;6974;53.606;9.872;2023-04-07T13:05:15;4.20;;;3.70;;
13805;SDS011;6974;53.606;9.872;2023-04-07T13:07:43;4.77;;;3.43;;
13805;SDS011;6974;53.606;9.872;2023-04-07T13:10:10;3.93;;;3.60;;
13805;SDS011;6974;53.606;9.872;2023-04-07T13:12:39;4.10;;;3.60;;
13805;SDS011;6974;53.606;9.872;2023-04-07T13:15:06;3.53;;;3.23;;
13805;SDS011;6974;53.606;9.872;2023-04-07T13:17:34;3.50;;;3.17;;
13805;SDS011;6974;53.606;9.872;2023-04-07T13:20:02;3.93;;;3.27;;
13805;SDS011;6974;53.606;9.872;2023-04-07T13:22:31;3.63;;;3.10;;
13805;SDS011;6974;53.606;9.872;2023-04-07T13:24:58;4.07;;;3.40;;
13805;SDS011;6974;53.606;9.872;2023-04-07T13:27:26;3.53;;;3.10;;
13805;SDS011;6974;53.606;9.872;2023-04-07T13:29:56;3.27;;;2.93;;
13805;SDS011;6974;53.606;9.872;2023-04-07T13:32:23;4.30;;;2.90;;
13805;SDS011;6974;53.606;9.872;2023-04-07T13:34:51;3.60;;;2.90;;
13805;SDS011;6974;53.606;9.872;2023-04-07T13:37:18;3.10;;;2.80;;
13805;SDS011;6974;53.606;9.872;2023-04-07T13:39:45;3.40;;;3.00;;
13805;SDS011;6974;53.606;9.872;2023-04-07T13:42:12;3.03;;;2.70;;
13805;SDS011;6974;53.606;9.872;2023-04-07T13:44:41;3.50;;;2.70;;
13805;SDS011;6974;53.606;9.872;2023-04-07T13:47:11;3.40;;;2.70;;
13805;SDS011;6974;53.606;9.872;2023-04-07T13:49:43;4.20;;;2.70;;
13805;SDS011;6974;53.606;9.872;2023-04-07T13:52:11;4.50;;;3.13;;
13805;SDS011;6974;53.606;9.872;2023-04-07T13:54:38;3.67;;;2.77;;
13805;SDS011;6974;53.606;9.872;2023-04-07T13:57:06;4.13;;;3.10;;
13805;SDS011;6974;53.606;9.872;2023-04-07T13:59:35;3.97;;;3.00;;
13805;SDS011;6974;53.606;9.872;2023-04-07T14:02:02;3.17;;;2.80;;
13805;SDS011;6974;53.606;9.872;2023-04-07T14:04:30;3.03;;;2.43;;
13805;SDS011;6974;53.606;9.872;2023-04-07T14:06:59;5.70;;;2.93;;
13805;SDS011;6974;53.606;9.872;2023-04-07T14:09:27;2.87;;;2.63;;
13805;SDS011;6974;53.606;9.872;2023-04-07T14:11:54;3.50;;;3.20;;
13805;SDS011;6974;53.606;9.872;2023-04-07T14:14:22;3.77;;;3.00;;
13805;SDS011;6974;53.606;9.872;2023-04-07T14:16:49;4.57;;;3.03;;
13805;SDS011;6974;53.606;9.872;2023-04-07T14:19:17;4.53;;;2.93;;
13805;SDS011;6974;53.606;9.872;2023-04-07T14:21:47;4.00;;;2.90;;
13805;SDS011;6974;53.606;9.872;2023-04-07T14:24:14;4.80;;;3.13;;
13805;SDS011;6974;53.606;9.872;2023-04-07T14:26:42;4.23;;;3.77;;
13805;SDS011;6974;53.606;9.872;2023-04-07T14:29:12;3.77;;;3.13;;
13805;SDS011;6974;53.606;9.872;2023-04-07T14:31:39;3.93;;;3.10;;
13805;SDS011;6974;53.606;9.872;2023-04-07T14:34:06;3.20;;;3.00;;
13805;SDS011;6974;53.606;9.872;2023-04-07T14:36:34;3.40;;;3.10;;
13805;SDS011;6974;53.606;9.872;2023-04-07T14:39:02;4.03;;;3.60;;
13805;SDS011;6974;53.606;9.872;2023-04-07T14:41:31;5.03;;;4.13;;
13805;SDS011;6974;53.606;9.872;2023-04-07T14:43:58;4.50;;;4.03;;
13805;SDS011;6974;53.606;9.872;2023-04-07T14:46:25;5.00;;;4.47;;
13805;SDS011;6974;53.606;9.872;2023-04-07T14:48:53;4.07;;;3.63;;
13805;SDS011;6974;53.606;9.872;2023-04-07T14:51:21;8.33;;;3.47;;
13805;SDS011;6974;53.606;9.872;2023-04-07T14:53:49;5.23;;;3.73;;
13805;SDS011;6974;53.606;9.872;2023-04-07T14:56:21;5.43;;;3.40;;
13805;SDS011;6974;53.606;9.872;2023-04-07T14:58:48;4.20;;;3.80;;
13805;SDS011;6974;53.606;9.872;2023-04-07T15:01:16;4.17;;;3.70;;
13805;SDS011;6974;53.606;9.872;2023-04-07T15:03:43;5.97;;;4.03;;
13805;SDS011;6974;53.606;9.872;2023-04-07T15:06:10;5.30;;;4.10;;
13805;SDS011;6974;53.606;9.872;2023-04-07T15:08:38;5.70;;;4.10;;
13805;SDS011;6974;53.606;9.872;2023-04-07T15:11:05;5.87;;;4.30;;
13805;SDS011;6974;53.606;9.872;2023-04-07T15:13:34;5.17;;;4.67;;
13805;SDS011;6974;53.606;9.872;2023-04-07T15:16:04;5.53;;;4.87;;
13805;SDS011;6974;53.606;9.872;2023-04-07T15:18:32;5.53;;;4.17;;
13805;SDS011;6974;53.606;9.872;2023-04-07T15:20:59;5.33;;;4.10;;